createdAt,value
2022-11-20T00:01:22.902Z,8.93
2022-11-20T00:03:51.342Z,9.02
2022-11-20T00:06:19.533Z,8.82
2022-11-20T00:08:47.023Z,8.98
2022-11-20T00:11:21.475Z,8.75
2022-11-20T00:13:50.043Z,7.97
2022-11-20T00:16:19.813Z,8.07
2022-11-20T00:18:46.882Z,8.00
2022-11-20T00:21:16.278Z,8.77
2022-11-20T00:23:44.011Z,7.90
2022-11-20T00:26:13.859Z,7.20
2022-11-20T00:28:41.576Z,7.80
2022-11-20T00:31:13.849Z,8.10
2022-11-20T00:33:41.153Z,8.27
2022-11-20T00:36:10.279Z,7.68
2022-11-20T00:38:36.985Z,7.38
2022-11-20T00:41:09.060Z,7.32
2022-11-20T00:43:36.684Z,7.53
2022-11-20T00:46:04.886Z,7.03
2022-11-20T00:48:32.083Z,6.63
2022-11-20T00:50:59.023Z,6.55
2022-11-20T00:53:26.601Z,7.25
2022-11-20T00:56:00.851Z,7.05
2022-11-20T00:58:31.622Z,6.88
2022-11-20T01:01:12.000Z,6.57
2022-11-20T01:03:41.059Z,7.03
2022-11-20T01:06:12.513Z,6.32
2022-11-20T01:08:39.341Z,6.32
2022-11-20T01:11:09.958Z,6.50
2022-11-20T01:13:38.101Z,6.18
2022-11-20T01:16:05.859Z,6.30
2022-11-20T01:18:32.897Z,6.05
2022-11-20T01:21:08.550Z,6.15
2022-11-20T01:23:37.424Z,7.07
2022-11-20T01:26:10.624Z,6.18
2022-11-20T01:28:37.371Z,7.03
2022-11-20T01:31:14.373Z,6.05
2022-11-20T01:33:42.148Z,5.97
2022-11-20T01:36:10.561Z,5.80
2022-11-20T01:38:37.219Z,5.68
2022-11-20T01:41:04.699Z,6.47
2022-11-20T01:43:32.225Z,6.20
2022-11-20T01:46:19.816Z,6.45
2022-11-20T01:48:49.258Z,5.82
2022-11-20T01:51:40.156Z,5.22
2022-11-20T01:54:13.340Z,6.05
2022-11-20T01:56:44.801Z,6.45
2022-11-20T01:59:16.872Z,5.35
2022-11-20T02:01:43.486Z,6.50
2022-11-20T02:04:11.615Z,6.55
2022-11-20T02:06:51.006Z,6.18
2022-11-20T02:09:17.750Z,6.63
2022-11-20T02:11:44.562Z,5.85
2022-11-20T02:14:11.702Z,5.93
2022-11-20T02:16:45.110Z,5.85
2022-11-20T02:19:38.272Z,5.72
2022-11-20T02:22:17.325Z,5.82
2022-11-20T02:24:46.180Z,5.75
2022-11-20T02:27:15.200Z,6.40
2022-11-20T02:29:51.612Z,6.18
2022-11-20T02:32:29.474Z,6.38
2022-11-20T02:34:56.466Z,5.70
2022-11-20T02:37:24.117Z,6.20
2022-11-20T02:39:52.833Z,5.93
2022-11-20T02:42:20.033Z,6.50
2022-11-20T02:44:46.551Z,6.05
2022-11-20T02:47:13.265Z,5.88
2022-11-20T02:49:39.772Z,6.20
2022-11-20T02:52:06.343Z,6.50
2022-11-20T02:54:33.185Z,6.18
2022-11-20T02:56:59.775Z,5.68
2022-11-20T02:59:26.615Z,5.75
2022-11-20T03:01:53.259Z,5.85
2022-11-20T03:04:19.875Z,6.72
2022-11-20T03:06:46.587Z,6.35
2022-11-20T03:09:13.644Z,6.07
2022-11-20T03:11:40.275Z,6.60
2022-11-20T03:14:07.020Z,6.10
2022-11-20T03:16:33.922Z,6.25
2022-11-20T03:19:01.306Z,6.75
2022-11-20T03:21:28.046Z,6.15
2022-11-20T03:23:55.973Z,6.20
2022-11-20T03:26:25.090Z,6.38
2022-11-20T03:28:54.367Z,6.80
2022-11-20T03:31:24.091Z,6.03
2022-11-20T03:33:51.108Z,6.50
2022-11-20T03:36:19.197Z,6.43
2022-11-20T03:38:46.230Z,6.35
2022-11-20T03:41:18.093Z,6.57
2022-11-20T03:43:58.898Z,6.35
2022-11-20T03:46:26.202Z,7.00
2022-11-20T03:48:53.025Z,6.65
2022-11-20T03:51:22.241Z,6.68
2022-11-20T03:53:51.230Z,5.88
2022-11-20T03:56:20.579Z,6.95
2022-11-20T03:58:47.204Z,6.50
2022-11-20T04:01:19.675Z,6.20
2022-11-20T04:03:46.812Z,6.50
2022-11-20T04:06:16.510Z,6.43
2022-11-20T04:08:44.118Z,6.40
2022-11-20T04:11:11.564Z,5.65
2022-11-20T04:13:38.497Z,7.43
2022-11-20T04:16:06.428Z,6.70
2022-11-20T04:18:33.407Z,5.65
2022-11-20T04:21:00.500Z,6.35
2022-11-20T04:23:28.926Z,6.72
2022-11-20T04:25:55.895Z,6.53
2022-11-20T04:28:25.085Z,6.80
2022-11-20T04:30:51.591Z,7.03
2022-11-20T04:33:18.140Z,5.70
2022-11-20T04:35:48.294Z,6.70
2022-11-20T04:38:15.076Z,6.20
2022-11-20T04:40:41.600Z,6.68
2022-11-20T04:43:08.093Z,6.70
2022-11-20T04:45:35.354Z,6.20
2022-11-20T04:48:02.069Z,5.53
2022-11-20T04:50:28.684Z,6.47
2022-11-20T04:52:55.228Z,6.47
2022-11-20T04:55:21.752Z,6.93
2022-11-20T04:57:51.820Z,6.65
2022-11-20T05:00:18.536Z,6.65
2022-11-20T05:02:45.411Z,6.75
2022-11-20T05:05:11.908Z,6.70
2022-11-20T05:07:38.528Z,5.93
2022-11-20T05:10:05.584Z,7.10
2022-11-20T05:12:32.523Z,6.97
2022-11-20T05:14:59.351Z,6.97
2022-11-20T05:17:25.884Z,6.97
2022-11-20T05:19:53.312Z,6.78
2022-11-20T05:22:20.071Z,6.35
2022-11-20T05:24:46.712Z,6.25
2022-11-20T05:27:13.414Z,6.90
2022-11-20T05:29:40.197Z,6.00
2022-11-20T05:32:08.262Z,6.22
2022-11-20T05:39:13.347Z,6.82
2022-11-20T05:41:39.290Z,6.50
2022-11-20T05:44:05.178Z,6.40
2022-11-20T05:46:31.052Z,6.22
2022-11-20T05:48:58.192Z,5.90
2022-11-20T05:51:25.501Z,6.45
2022-11-20T05:53:51.426Z,6.28
2022-11-20T05:56:20.199Z,6.50
2022-11-20T06:03:55.512Z,6.45
2022-11-20T06:06:21.471Z,6.88
2022-11-20T06:08:47.821Z,6.22
2022-11-20T06:11:15.105Z,6.55
2022-11-20T06:13:42.690Z,6.38
2022-11-20T06:16:09.957Z,7.20
2022-11-20T06:18:35.997Z,6.60
2022-11-20T06:26:25.707Z,6.00
2022-11-20T06:28:52.295Z,6.55
2022-11-20T06:31:21.547Z,6.30
2022-11-20T06:33:48.424Z,6.03
2022-11-20T06:36:16.289Z,6.00
2022-11-20T06:38:42.600Z,6.97
2022-11-20T06:41:18.220Z,6.68
2022-11-20T06:43:44.988Z,6.72
2022-11-20T06:46:13.443Z,6.53
2022-11-20T06:48:41.082Z,6.40
2022-11-20T06:51:09.134Z,7.05
2022-11-20T06:53:36.813Z,6.30
2022-11-20T06:56:03.975Z,6.57
2022-11-20T06:58:32.714Z,5.47
2022-11-20T07:01:00.748Z,5.82
2022-11-20T07:03:27.434Z,6.45
2022-11-20T07:05:57.732Z,6.57
2022-11-20T07:08:25.318Z,6.55
2022-11-20T07:10:52.060Z,6.70
2022-11-20T07:13:18.633Z,6.55
2022-11-20T07:15:45.260Z,7.15
2022-11-20T07:18:12.245Z,6.60
2022-11-20T07:20:38.973Z,6.15
2022-11-20T07:23:05.680Z,6.47
2022-11-20T07:25:32.414Z,6.28
2022-11-20T07:28:00.069Z,6.07
2022-11-20T07:30:27.772Z,6.13
2022-11-20T07:32:56.471Z,6.28
2022-11-20T07:35:24.315Z,6.57
2022-11-20T07:37:51.117Z,6.10
2022-11-20T07:40:18.642Z,6.95
2022-11-20T07:42:50.164Z,6.40
2022-11-20T07:45:17.802Z,6.15
2022-11-20T07:47:44.686Z,6.45
2022-11-20T07:50:12.254Z,6.30
2022-11-20T07:52:39.117Z,6.32
2022-11-20T07:55:06.334Z,6.72
2022-11-20T07:57:32.976Z,6.88
2022-11-20T07:59:59.921Z,5.95
2022-11-20T08:02:26.584Z,6.28
2022-11-20T08:04:53.173Z,6.60
2022-11-20T08:07:19.849Z,7.22
2022-11-20T08:09:46.501Z,6.53
2022-11-20T08:12:39.781Z,6.97
2022-11-20T08:15:12.636Z,6.07
2022-11-20T08:17:39.897Z,6.35
2022-11-20T08:20:07.099Z,7.00
2022-11-20T08:22:33.743Z,6.82
2022-11-20T08:25:00.376Z,6.10
2022-11-20T08:27:27.342Z,6.70
2022-11-20T08:29:54.021Z,6.50
2022-11-20T08:32:20.630Z,7.47
2022-11-20T08:34:47.488Z,7.93
2022-11-20T08:37:14.071Z,8.43
2022-11-20T08:39:40.690Z,8.25
2022-11-20T08:42:10.186Z,10.52
2022-11-20T08:44:36.865Z,8.43
2022-11-20T08:47:03.495Z,7.40
2022-11-20T08:49:30.244Z,6.60
2022-11-20T08:51:58.308Z,7.60
2022-11-20T08:54:25.484Z,8.18
2022-11-20T08:56:52.594Z,6.75
2022-11-20T08:59:37.275Z,7.03
2022-11-20T09:02:06.983Z,6.55
2022-11-20T09:04:33.865Z,5.82
2022-11-20T09:07:01.695Z,6.40
2022-11-20T09:09:30.095Z,6.70
2022-11-20T09:11:57.154Z,6.80
2022-11-20T09:14:25.876Z,6.85
2022-11-20T09:16:52.856Z,6.13
2022-11-20T09:19:40.615Z,6.05
2022-11-20T09:22:06.824Z,7.60
2022-11-20T09:24:33.885Z,8.18
2022-11-20T09:27:03.427Z,8.82
2022-11-20T09:29:30.749Z,8.95
2022-11-20T09:31:57.723Z,6.28
2022-11-20T09:34:24.967Z,6.20
2022-11-20T09:36:51.903Z,6.05
2022-11-20T09:39:19.241Z,6.32
2022-11-20T09:41:55.632Z,6.80
2022-11-20T09:44:39.794Z,6.55
2022-11-20T09:47:13.849Z,6.70
2022-11-20T09:49:55.211Z,7.65
2022-11-20T09:52:40.524Z,6.57
2022-11-20T09:55:11.563Z,6.50
2022-11-20T09:57:42.615Z,6.55
2022-11-20T10:00:14.642Z,7.03
2022-11-20T10:02:53.163Z,5.78
2022-11-20T10:05:26.033Z,6.00
2022-11-20T10:08:01.174Z,5.60
2022-11-20T10:10:30.828Z,6.30
2022-11-20T10:13:17.280Z,6.20
2022-11-20T10:16:03.953Z,6.05
2022-11-20T10:18:57.918Z,6.80
2022-11-20T10:21:42.212Z,6.32
2022-11-20T10:24:18.065Z,5.88
2022-11-20T10:27:06.108Z,8.30
2022-11-20T10:29:39.260Z,8.05
2022-11-20T10:32:19.825Z,8.02
2022-11-20T10:34:59.528Z,8.75
2022-11-20T10:37:27.916Z,8.68
2022-11-20T10:40:19.364Z,6.88
2022-11-20T10:42:49.088Z,6.82
2022-11-20T10:45:24.871Z,5.65
2022-11-20T10:48:10.268Z,5.93
2022-11-20T10:50:45.627Z,6.88
2022-11-20T10:53:49.438Z,7.30
2022-11-20T10:56:23.812Z,8.18
2022-11-20T10:58:59.407Z,6.82
2022-11-20T11:01:27.584Z,9.10
2022-11-20T11:03:57.167Z,14.82
2022-11-20T11:06:47.768Z,19.90
2022-11-20T11:09:22.692Z,6.65
2022-11-20T11:11:49.536Z,7.15
2022-11-20T11:14:16.830Z,6.53
2022-11-20T11:16:54.939Z,7.68
2022-11-20T11:19:22.171Z,6.20
2022-11-20T11:21:55.631Z,6.25
2022-11-20T11:24:45.999Z,5.75
2022-11-20T11:27:17.321Z,5.63
2022-11-20T11:29:45.005Z,7.50
2022-11-20T11:32:20.629Z,6.93
2022-11-20T11:35:02.415Z,7.47
2022-11-20T11:37:35.958Z,7.03
2022-11-20T11:40:23.532Z,6.68
2022-11-20T11:42:55.902Z,6.97
2022-11-20T11:45:22.742Z,6.03
2022-11-20T11:47:52.727Z,6.00
2022-11-20T11:50:22.977Z,5.95
2022-11-20T11:53:13.992Z,6.03
2022-11-20T11:56:09.566Z,5.60
2022-11-20T11:58:52.093Z,5.10
2022-11-20T12:01:18.686Z,5.80
2022-11-20T12:04:03.358Z,5.47
2022-11-20T12:06:32.629Z,5.90
2022-11-20T12:09:06.350Z,5.78
2022-11-20T12:11:46.428Z,5.18
2022-11-20T12:14:41.032Z,5.40
2022-11-20T12:17:12.297Z,5.20
2022-11-20T12:19:38.922Z,4.97
2022-11-20T12:22:14.790Z,4.80
2022-11-20T12:24:47.659Z,5.43
2022-11-20T12:27:42.280Z,6.70
2022-11-20T12:30:11.870Z,9.00
2022-11-20T12:33:06.139Z,5.55
2022-11-20T12:36:06.937Z,4.68
2022-11-20T12:38:36.556Z,4.38
2022-11-20T12:41:06.101Z,4.43
2022-11-20T12:44:03.238Z,4.80
2022-11-20T12:46:59.973Z,4.88
2022-11-20T12:49:43.304Z,4.93
2022-11-20T12:52:35.564Z,5.10
2022-11-20T12:55:36.054Z,4.93
2022-11-20T12:58:24.192Z,4.70
2022-11-20T13:01:01.860Z,4.88
2022-11-20T13:03:54.446Z,5.47
2022-11-20T13:06:23.407Z,5.30
2022-11-20T13:08:57.419Z,3.97
2022-11-20T13:11:44.144Z,4.63
2022-11-20T13:14:41.260Z,5.45
2022-11-20T13:17:19.066Z,5.15
2022-11-20T13:19:55.865Z,4.88
2022-11-20T13:22:31.279Z,4.72
2022-11-20T13:24:58.054Z,4.18
2022-11-20T13:27:25.403Z,6.03
2022-11-20T13:30:16.346Z,5.28
2022-11-20T13:32:57.828Z,4.88
2022-11-20T13:35:36.412Z,4.50
2022-11-20T13:38:14.811Z,4.47
2022-11-20T13:40:57.342Z,4.50
2022-11-20T13:43:29.965Z,5.18
2022-11-20T13:46:02.476Z,5.10
2022-11-20T13:48:39.165Z,4.95
2022-11-20T13:51:27.078Z,5.00
2022-11-20T13:54:15.025Z,4.45
2022-11-20T13:56:49.947Z,5.05
2022-11-20T13:59:34.117Z,5.05
2022-11-20T14:02:02.197Z,5.45
2022-11-20T14:04:36.247Z,5.10
2022-11-20T14:07:07.571Z,5.75
2022-11-20T14:09:35.152Z,5.70
2022-11-20T14:12:04.370Z,5.38
2022-11-20T14:14:33.650Z,6.13
2022-11-20T14:17:29.638Z,5.20
2022-11-20T14:20:04.926Z,5.10
2022-11-20T14:22:31.747Z,4.93
2022-11-20T14:25:03.330Z,5.85
2022-11-20T14:27:30.267Z,6.22
2022-11-20T14:29:57.013Z,5.85
2022-11-20T14:39:32.155Z,5.22
2022-11-20T14:41:59.140Z,5.25
2022-11-20T14:44:32.929Z,5.97
2022-11-20T14:47:01.334Z,5.70
2022-11-20T14:49:31.002Z,5.60
2022-11-20T14:52:01.874Z,5.97
2022-11-20T14:54:29.357Z,5.25
2022-11-20T15:02:09.243Z,5.72
2022-11-20T15:04:46.067Z,6.07
2022-11-20T15:07:11.986Z,6.25
2022-11-20T15:09:38.738Z,7.10
2022-11-20T15:12:05.026Z,8.30
2022-11-20T15:14:32.975Z,6.90
2022-11-20T15:16:59.897Z,7.45
2022-11-20T15:24:46.321Z,7.10
2022-11-20T15:27:12.503Z,7.05
2022-11-20T15:29:38.482Z,10.88
2022-11-20T15:32:07.979Z,9.77
2022-11-20T15:34:38.055Z,7.50
2022-11-20T15:37:04.007Z,7.43
2022-11-20T15:39:29.852Z,8.50
2022-11-20T15:46:54.317Z,9.13
2022-11-20T15:49:21.976Z,11.75
2022-11-20T15:51:49.961Z,10.80
2022-11-20T15:54:22.013Z,8.68
2022-11-20T15:56:49.887Z,8.88
2022-11-20T15:59:15.921Z,9.88
2022-11-20T16:01:42.369Z,9.93
2022-11-20T16:09:20.589Z,7.88
2022-11-20T16:11:46.628Z,7.82
2022-11-20T16:14:31.278Z,7.60
2022-11-20T16:16:57.236Z,7.97
2022-11-20T16:19:23.052Z,7.38
2022-11-20T16:21:48.983Z,8.25
2022-11-20T16:24:16.332Z,8.05
2022-11-20T18:31:10.830Z,11.20
2022-11-20T18:33:37.952Z,17.42
2022-11-20T18:36:22.400Z,11.95
2022-11-20T18:38:51.843Z,9.82
2022-11-20T18:41:39.209Z,12.00
2022-11-20T18:44:30.392Z,12.77
2022-11-20T18:46:57.219Z,13.18
2022-11-20T18:49:23.950Z,13.57
2022-11-20T18:51:50.660Z,13.43
2022-11-20T18:54:17.477Z,13.88
2022-11-20T18:56:44.083Z,13.43
2022-11-20T18:59:12.701Z,13.70
2022-11-20T19:01:39.483Z,14.05
2022-11-20T19:04:08.308Z,20.35
2022-11-20T19:06:36.118Z,14.88
2022-11-20T19:09:05.125Z,14.85
2022-11-20T19:11:32.607Z,14.93
2022-11-20T19:13:59.281Z,13.88
2022-11-20T19:16:26.402Z,13.48
2022-11-20T19:18:54.758Z,16.75
2022-11-20T19:21:24.731Z,15.55
2022-11-20T19:23:53.897Z,12.20
2022-11-20T19:26:21.675Z,12.63
2022-11-20T19:28:48.459Z,16.10
2022-11-20T19:31:26.840Z,9.43
2022-11-20T19:34:02.676Z,9.73
2022-11-20T19:36:32.807Z,13.75
2022-11-20T19:39:00.188Z,10.75
2022-11-20T19:41:31.656Z,9.32
2022-11-20T19:44:03.882Z,8.43
2022-11-20T19:46:32.238Z,11.25
2022-11-20T19:48:59.218Z,10.90
2022-11-20T19:51:29.873Z,12.60
2022-11-20T19:53:58.413Z,12.30
2022-11-20T19:56:26.600Z,12.45
2022-11-20T19:58:54.441Z,12.57
2022-11-20T20:01:23.975Z,13.65
2022-11-20T20:03:51.488Z,14.23
2022-11-20T20:06:21.276Z,14.18
2022-11-20T20:09:00.800Z,13.93
2022-11-20T20:11:29.923Z,13.18
2022-11-20T20:13:58.989Z,13.00
2022-11-20T20:16:26.612Z,13.43
2022-11-20T20:18:58.230Z,13.43
2022-11-20T20:21:25.002Z,13.75
2022-11-20T20:23:53.886Z,13.10
2022-11-20T20:26:22.154Z,14.85
2022-11-20T20:28:49.390Z,19.77
2022-11-20T20:31:21.874Z,16.85
2022-11-20T20:33:48.892Z,18.55
2022-11-20T20:36:18.085Z,12.40
2022-11-20T20:38:46.023Z,10.95
2022-11-20T20:41:14.255Z,10.35
2022-11-20T20:44:00.200Z,10.98
2022-11-20T20:46:26.789Z,11.73
2022-11-20T20:48:54.952Z,10.82
2022-11-20T20:51:22.484Z,12.27
2022-11-20T20:53:50.157Z,12.15
2022-11-20T20:56:17.798Z,15.38
2022-11-20T20:58:44.453Z,14.35
2022-11-20T21:01:13.634Z,13.90
2022-11-20T21:03:40.891Z,12.73
2022-11-20T21:06:12.161Z,12.73
2022-11-20T21:08:40.887Z,11.80
2022-11-20T21:11:10.639Z,11.80
2022-11-20T21:13:39.422Z,11.70
2022-11-20T21:16:06.965Z,11.98
2022-11-20T21:18:34.284Z,11.98
2022-11-20T21:21:23.046Z,11.52
2022-11-20T21:23:49.942Z,11.43
2022-11-20T21:26:17.389Z,10.68
2022-11-20T21:28:44.154Z,11.77
2022-11-20T21:31:15.325Z,10.27
2022-11-20T21:33:43.877Z,8.77
2022-11-20T21:36:12.336Z,9.27
2022-11-20T21:38:39.488Z,9.45
2022-11-20T21:41:08.158Z,9.40
2022-11-20T21:43:34.841Z,9.15
2022-11-20T21:46:04.132Z,9.00
2022-11-20T21:48:32.318Z,9.43
2022-11-20T21:51:06.793Z,9.00
2022-11-20T21:53:34.536Z,8.07
2022-11-20T21:56:01.623Z,8.48
2022-11-20T21:58:28.262Z,8.80
2022-11-20T22:00:55.105Z,8.88
2022-11-20T22:03:22.047Z,8.80
2022-11-20T22:05:58.785Z,8.52
2022-11-20T22:08:26.112Z,8.88
2022-11-20T22:10:57.023Z,9.23
2022-11-20T22:13:44.014Z,9.80
2022-11-20T22:16:11.460Z,10.07
2022-11-20T22:18:45.439Z,10.18
2022-11-20T22:21:13.237Z,10.23
2022-11-20T22:23:40.178Z,9.20
2022-11-20T22:26:10.306Z,9.00
2022-11-20T22:28:37.473Z,8.63
2022-11-20T22:31:06.658Z,8.50
2022-11-20T22:33:34.384Z,8.50
2022-11-20T22:36:05.782Z,8.63
2022-11-20T22:38:38.872Z,7.78
2022-11-20T22:41:11.110Z,8.10
2022-11-20T22:43:38.645Z,8.90
2022-11-20T22:46:15.260Z,8.23
2022-11-20T22:48:44.808Z,8.35
2022-11-20T22:51:14.317Z,8.10
2022-11-20T22:53:44.403Z,8.52
2022-11-20T22:56:13.211Z,7.85
2022-11-20T22:58:42.225Z,8.82
2022-11-20T23:01:20.711Z,8.50
2022-11-20T23:03:49.211Z,8.20
2022-11-20T23:06:18.557Z,8.73
2022-11-20T23:08:46.121Z,7.07
2022-11-20T23:11:15.964Z,7.90
2022-11-20T23:13:43.556Z,7.38
2022-11-20T23:16:14.024Z,7.22
2022-11-20T23:18:41.153Z,7.20
2022-11-20T23:21:13.320Z,7.07
2022-11-20T23:23:40.424Z,6.97
2022-11-20T23:26:10.343Z,6.97
2022-11-20T23:28:38.241Z,6.45
2022-11-20T23:31:05.654Z,6.95
2022-11-20T23:33:35.592Z,6.57
2022-11-20T23:36:02.272Z,6.65
2022-11-20T23:38:28.882Z,6.63
2022-11-20T23:40:55.425Z,6.38
2022-11-20T23:43:23.081Z,6.15
2022-11-20T23:45:51.840Z,6.63
2022-11-20T23:48:19.668Z,7.05
2022-11-20T23:50:46.695Z,6.70
2022-11-20T23:53:14.500Z,6.03
2022-11-20T23:55:46.227Z,6.05
2022-11-20T23:58:13.775Z,6.28
